Terminal Aerodrome Forecast
Issued by NWS

Home | Current Version | Previous Version | Text Only | Print | Product List | Glossary On
Versions: 1 2 3 4 5 6 7 8 9 10 11 12 13 14 15
000
FTUS41 KPHI 101134
TAFPNE
TAF
KPNE 101134Z 1012/1112 27007KT P6SM SCT060 BKN200
     FM101700 29012G19KT P6SM BKN040
     FM102200 29008KT P6SM SCT040 BKN200
     FM110800 VRB02KT P6SM OVC120=

USA.gov is the U.S. government's official web portal to all federal, state and local government web resources and services.